createdAt,value
2023-04-26T00:00:27.736Z,906.00
2023-04-26T00:01:27.751Z,903.00
2023-04-26T00:02:28.025Z,902.00
2023-04-26T00:03:27.040Z,901.00
2023-04-26T00:04:27.151Z,903.00
2023-04-26T00:05:27.955Z,902.00
2023-04-26T00:06:27.946Z,902.00
2023-04-26T00:07:27.009Z,903.00
2023-04-26T00:08:28.020Z,904.00
2023-04-26T00:09:27.064Z,906.00
2023-04-26T00:10:28.116Z,907.00
2023-04-26T00:11:27.157Z,910.00
2023-04-26T00:12:27.207Z,909.00
2023-04-26T00:13:28.256Z,908.00
2023-04-26T00:14:28.312Z,907.00
2023-04-26T00:15:28.404Z,904.00
2023-04-26T00:16:28.427Z,902.00
2023-04-26T00:17:28.496Z,900.00
2023-04-26T00:18:27.530Z,897.00
2023-04-26T00:19:28.580Z,899.00
2023-04-26T00:20:27.660Z,899.00
2023-04-26T00:21:27.682Z,898.00
2023-04-26T00:22:27.718Z,898.00
2023-04-26T00:23:27.770Z,899.00
2023-04-26T00:24:27.827Z,901.00
2023-04-26T00:25:27.885Z,900.00
2023-04-26T00:26:28.927Z,901.00
2023-04-26T00:27:28.024Z,903.00
2023-04-26T00:28:29.043Z,901.00
2023-04-26T00:29:28.113Z,902.00
2023-04-26T00:30:28.197Z,900.00
2023-04-26T00:31:28.264Z,896.00
2023-04-26T00:32:29.443Z,892.00
2023-04-26T00:33:29.332Z,892.00
2023-04-26T00:34:28.413Z,891.00
2023-04-26T00:35:29.446Z,891.00
2023-04-26T00:36:29.496Z,895.00
2023-04-26T00:37:29.561Z,898.00
2023-04-26T00:38:28.860Z,897.00
2023-04-26T00:39:29.669Z,898.00
2023-04-26T00:40:28.729Z,899.00
2023-04-26T00:41:28.795Z,895.00
2023-04-26T00:42:28.855Z,895.00
2023-04-26T00:43:29.905Z,896.00
2023-04-26T00:44:29.951Z,897.00
2023-04-26T00:45:29.047Z,896.00
2023-04-26T00:46:30.098Z,893.00
2023-04-26T00:47:30.182Z,897.00
2023-04-26T00:48:30.193Z,895.00
2023-04-26T00:49:29.258Z,893.00
2023-04-26T00:50:29.288Z,893.00
2023-04-26T00:51:29.351Z,893.00
2023-04-26T00:52:30.431Z,888.00
2023-04-26T00:53:30.488Z,890.00
2023-04-26T00:54:29.547Z,892.00
2023-04-26T00:55:30.623Z,890.00
2023-04-26T00:56:30.744Z,890.00
2023-04-26T00:57:29.719Z,887.00
2023-04-26T00:58:30.778Z,885.00
2023-04-26T00:59:30.818Z,886.00
2023-04-26T01:00:30.892Z,887.00
2023-04-26T01:01:30.995Z,889.00
2023-04-26T01:02:30.124Z,891.00
2023-04-26T01:03:30.216Z,891.00
2023-04-26T01:04:31.157Z,890.00
2023-04-26T01:05:30.178Z,892.00
2023-04-26T01:06:31.220Z,892.00
2023-04-26T01:07:31.278Z,894.00
2023-04-26T01:08:30.355Z,890.00
2023-04-26T01:09:31.453Z,890.00
2023-04-26T01:10:32.259Z,890.00
2023-04-26T01:11:31.792Z,887.00
2023-04-26T01:12:31.591Z,888.00
2023-04-26T01:13:31.641Z,888.00
2023-04-26T01:14:30.699Z,893.00
2023-04-26T01:15:31.753Z,892.00
2023-04-26T01:16:31.863Z,890.00
2023-04-26T01:17:31.902Z,892.00
2023-04-26T01:18:31.969Z,889.00
2023-04-26T01:19:31.990Z,887.00
2023-04-26T01:20:31.035Z,888.00
2023-04-26T01:21:32.104Z,889.00
2023-04-26T01:22:32.165Z,890.00
2023-04-26T01:23:31.217Z,888.00
2023-04-26T01:24:31.265Z,889.00
2023-04-26T01:25:31.330Z,885.00
2023-04-26T01:26:31.384Z,885.00
2023-04-26T01:27:31.490Z,886.00
2023-04-26T01:28:31.512Z,887.00
2023-04-26T01:29:31.531Z,889.00
2023-04-26T01:30:32.636Z,887.00
2023-04-26T01:31:31.753Z,887.00
2023-04-26T01:32:32.765Z,890.00
2023-04-26T01:33:31.757Z,890.00
2023-04-26T01:34:32.839Z,890.00
2023-04-26T01:35:32.888Z,890.00
2023-04-26T01:36:31.927Z,889.00
2023-04-26T01:37:31.996Z,888.00
2023-04-26T01:38:33.052Z,889.00
2023-04-26T01:39:33.118Z,892.00
2023-04-26T01:40:32.193Z,889.00
2023-04-26T01:41:33.228Z,889.00
2023-04-26T01:42:32.302Z,890.00
2023-04-26T01:43:33.329Z,890.00
2023-04-26T01:44:33.411Z,887.00
2023-04-26T01:45:33.506Z,888.00
2023-04-26T01:46:32.629Z,890.00
2023-04-26T01:47:33.614Z,886.00
2023-04-26T01:48:33.647Z,886.00
2023-04-26T01:49:33.705Z,885.00
2023-04-26T01:50:33.801Z,887.00
2023-04-26T01:51:33.848Z,887.00
2023-04-26T01:52:33.895Z,881.00
2023-04-26T01:53:33.949Z,879.00
2023-04-26T01:54:33.000Z,882.00
2023-04-26T01:55:34.137Z,883.00
2023-04-26T01:56:33.204Z,885.00
2023-04-26T01:57:33.210Z,887.00
2023-04-26T01:58:33.274Z,884.00
2023-04-26T01:59:34.293Z,885.00
2023-04-26T02:00:33.343Z,887.00
2023-04-26T02:01:34.482Z,888.00
2023-04-26T02:02:34.545Z,890.00
2023-04-26T02:03:34.597Z,891.00
2023-04-26T02:04:34.632Z,886.00
2023-04-26T02:05:33.651Z,884.00
2023-04-26T02:06:34.736Z,885.00
2023-04-26T02:07:34.761Z,881.00
2023-04-26T02:08:34.828Z,881.00
2023-04-26T02:09:34.913Z,882.00
2023-04-26T02:10:34.941Z,886.00
2023-04-26T02:11:34.983Z,886.00
2023-04-26T02:12:35.074Z,885.00
2023-04-26T02:13:35.161Z,883.00
2023-04-26T02:14:35.185Z,884.00
2023-04-26T02:15:35.247Z,881.00
2023-04-26T02:16:35.376Z,882.00
2023-04-26T02:17:34.366Z,881.00
2023-04-26T02:18:34.409Z,880.00
2023-04-26T02:19:35.462Z,874.00
2023-04-26T02:20:35.527Z,873.00
2023-04-26T02:21:35.610Z,872.00
2023-04-26T02:22:35.670Z,872.00
2023-04-26T02:23:34.701Z,870.00
2023-04-26T02:24:34.737Z,869.00
2023-04-26T02:25:35.798Z,870.00
2023-04-26T02:26:35.866Z,872.00
2023-04-26T02:27:34.898Z,869.00
2023-04-26T02:28:35.966Z,867.00
2023-04-26T02:30:35.009Z,865.00
2023-04-26T02:31:35.065Z,866.00
2023-04-26T02:32:36.039Z,867.00
2023-04-26T02:33:36.073Z,869.00
2023-04-26T02:34:34.978Z,868.00
2023-04-26T02:35:34.977Z,870.00
2023-04-26T02:36:34.975Z,870.00
2023-04-26T02:37:35.962Z,872.00
2023-04-26T02:38:36.027Z,871.00
2023-04-26T02:39:34.962Z,868.00
2023-04-26T02:40:34.955Z,868.00
2023-04-26T02:41:35.991Z,865.00
2023-04-26T02:42:34.966Z,866.00
2023-04-26T02:43:35.931Z,866.00
2023-04-26T02:44:35.918Z,866.00
2023-04-26T02:45:35.919Z,867.00
2023-04-26T02:46:35.956Z,866.00
2023-04-26T02:47:34.937Z,866.00
2023-04-26T02:48:34.905Z,866.00
2023-04-26T02:49:35.881Z,867.00
2023-04-26T02:50:35.881Z,866.00
2023-04-26T02:51:35.910Z,868.00
2023-04-26T02:52:35.868Z,871.00
2023-04-26T02:53:34.941Z,871.00
2023-04-26T02:54:34.905Z,865.00
2023-04-26T02:55:34.870Z,866.00
2023-04-26T02:56:34.900Z,868.00
2023-04-26T02:57:36.033Z,864.00
2023-04-26T02:58:35.011Z,862.00
2023-04-26T02:59:35.061Z,862.00
2023-04-26T03:00:35.146Z,867.00
2023-04-26T03:01:35.287Z,869.00
2023-04-26T03:02:36.490Z,867.00
2023-04-26T03:03:36.371Z,866.00
2023-04-26T03:04:35.329Z,867.00
2023-04-26T03:05:36.400Z,867.00
2023-04-26T03:06:35.476Z,865.00
2023-04-26T03:07:35.494Z,865.00
2023-04-26T03:08:36.567Z,863.00
2023-04-26T03:09:36.599Z,863.00
2023-04-26T03:10:36.671Z,863.00
2023-04-26T03:11:36.697Z,865.00
2023-04-26T03:12:36.754Z,864.00
2023-04-26T03:13:36.811Z,867.00
2023-04-26T03:14:36.868Z,868.00
2023-04-26T03:15:35.927Z,864.00
2023-04-26T03:16:36.062Z,863.00
2023-04-26T03:17:37.065Z,865.00
2023-04-26T03:18:37.086Z,866.00
2023-04-26T03:19:37.146Z,868.00
2023-04-26T03:20:36.208Z,870.00
2023-04-26T03:21:37.292Z,873.00
2023-04-26T03:22:37.318Z,876.00
2023-04-26T03:23:37.384Z,878.00
2023-04-26T03:24:36.442Z,881.00
2023-04-26T03:25:37.467Z,880.00
2023-04-26T03:26:37.602Z,877.00
2023-04-26T03:27:37.584Z,879.00
2023-04-26T03:28:37.674Z,881.00
2023-04-26T03:29:37.697Z,882.00
2023-04-26T03:30:36.774Z,883.00
2023-04-26T03:31:36.860Z,880.00
2023-04-26T03:32:36.934Z,875.00
2023-04-26T03:33:37.979Z,877.00
2023-04-26T03:34:38.014Z,877.00
2023-04-26T03:35:38.063Z,874.00
2023-04-26T03:36:37.162Z,872.00
2023-04-26T03:37:37.188Z,874.00
2023-04-26T03:38:38.241Z,873.00
2023-04-26T03:39:37.300Z,873.00
2023-04-26T03:40:38.360Z,870.00
2023-04-26T03:41:38.431Z,869.00
2023-04-26T03:42:38.478Z,872.00
2023-04-26T03:43:38.530Z,877.00
2023-04-26T03:44:37.572Z,879.00
2023-04-26T03:45:37.723Z,879.00
2023-04-26T03:46:38.675Z,878.00
2023-04-26T03:47:37.788Z,876.00
2023-04-26T03:48:37.728Z,872.00
2023-04-26T03:49:37.767Z,876.00
2023-04-26T03:50:38.853Z,876.00
2023-04-26T03:51:38.859Z,877.00
2023-04-26T03:52:37.905Z,875.00
2023-04-26T03:53:38.943Z,871.00
2023-04-26T03:54:38.967Z,871.00
2023-04-26T03:55:39.011Z,874.00
2023-04-26T03:56:39.076Z,875.00
2023-04-26T03:57:39.124Z,872.00
2023-04-26T03:58:39.175Z,872.00
2023-04-26T03:59:38.183Z,870.00
2023-04-26T04:00:39.235Z,867.00
2023-04-26T04:01:39.274Z,863.00
2023-04-26T04:02:39.325Z,864.00
2023-04-26T04:04:38.441Z,866.00
2023-04-26T04:05:39.537Z,870.00
2023-04-26T04:06:38.311Z,869.00
2023-04-26T04:07:38.303Z,867.00
2023-04-26T04:08:39.313Z,866.00
2023-04-26T04:09:38.336Z,865.00
2023-04-26T04:10:39.339Z,864.00
2023-04-26T04:11:38.358Z,865.00
2023-04-26T04:12:39.375Z,864.00
2023-04-26T04:13:39.400Z,862.00
2023-04-26T04:14:38.429Z,864.00
2023-04-26T04:15:38.429Z,863.00
2023-04-26T04:16:38.424Z,862.00
2023-04-26T04:17:38.881Z,860.00
2023-04-26T04:18:38.430Z,860.00
2023-04-26T04:19:39.451Z,858.00
2023-04-26T04:20:39.446Z,855.00
2023-04-26T04:21:38.445Z,852.00
2023-04-26T04:22:39.465Z,852.00
2023-04-26T04:23:39.450Z,852.00
2023-04-26T04:24:39.476Z,853.00
2023-04-26T04:25:38.506Z,856.00
2023-04-26T04:26:39.509Z,856.00
2023-04-26T04:27:38.531Z,857.00
2023-04-26T04:28:38.550Z,856.00
2023-04-26T04:29:39.548Z,857.00
2023-04-26T04:30:38.598Z,857.00
2023-04-26T04:31:39.646Z,858.00
2023-04-26T04:32:38.610Z,861.00
2023-04-26T04:33:38.594Z,863.00
2023-04-26T04:34:38.623Z,865.00
2023-04-26T04:35:38.634Z,861.00
2023-04-26T04:36:38.632Z,864.00
2023-04-26T04:37:39.670Z,863.00
2023-04-26T04:38:38.675Z,863.00
2023-04-26T04:39:39.661Z,862.00
2023-04-26T04:40:39.686Z,863.00
2023-04-26T04:41:38.680Z,861.00
2023-04-26T04:42:39.700Z,860.00
2023-04-26T04:43:39.691Z,860.00
2023-04-26T04:44:38.708Z,861.00
2023-04-26T04:45:39.715Z,860.00
2023-04-26T04:46:39.757Z,859.00
2023-04-26T04:47:39.840Z,859.00
2023-04-26T04:48:39.757Z,859.00
2023-04-26T04:49:39.774Z,859.00
2023-04-26T04:50:39.807Z,860.00
2023-04-26T04:51:39.787Z,859.00
2023-04-26T04:52:39.816Z,857.00
2023-04-26T04:53:39.850Z,858.00
2023-04-26T04:54:39.828Z,858.00
2023-04-26T04:55:39.861Z,858.00
2023-04-26T04:56:38.865Z,857.00
2023-04-26T04:58:38.868Z,860.00
2023-04-26T04:59:38.875Z,862.00
2023-04-26T05:00:39.871Z,862.00
2023-04-26T05:01:39.082Z,861.00
2023-04-26T05:02:40.069Z,858.00
2023-04-26T05:03:39.952Z,858.00
2023-04-26T05:04:40.084Z,856.00
2023-04-26T05:05:39.921Z,854.00
2023-04-26T05:06:39.927Z,850.00
2023-04-26T05:07:39.952Z,848.00
2023-04-26T05:08:39.892Z,850.00
2023-04-26T05:09:38.904Z,851.00
2023-04-26T05:10:38.917Z,851.00
2023-04-26T05:11:39.954Z,851.00
2023-04-26T05:12:39.964Z,853.00
2023-04-26T05:13:39.979Z,855.00
2023-04-26T05:14:38.965Z,855.00
2023-04-26T05:15:38.934Z,853.00
2023-04-26T05:16:40.029Z,851.00
2023-04-26T05:17:39.013Z,850.00
2023-04-26T05:18:40.153Z,848.00
2023-04-26T05:19:39.980Z,846.00
2023-04-26T05:20:39.971Z,844.00
2023-04-26T05:21:38.957Z,842.00
2023-04-26T05:22:39.989Z,839.00
2023-04-26T05:23:39.993Z,838.00
2023-04-26T05:24:39.980Z,837.00
2023-04-26T05:25:40.007Z,836.00
2023-04-26T05:26:38.990Z,835.00
2023-04-26T05:27:40.007Z,835.00
2023-04-26T05:28:40.015Z,840.00
2023-04-26T05:29:40.061Z,840.00
2023-04-26T05:30:40.032Z,839.00
2023-04-26T05:31:39.080Z,839.00
2023-04-26T05:32:40.096Z,840.00
2023-04-26T05:33:40.053Z,836.00
2023-04-26T05:34:40.259Z,837.00
2023-04-26T05:35:40.582Z,836.00
2023-04-26T05:36:39.102Z,834.00
2023-04-26T05:37:39.148Z,831.00
2023-04-26T05:38:40.134Z,831.00
2023-04-26T05:39:39.149Z,832.00
2023-04-26T05:40:39.228Z,839.00
2023-04-26T05:41:39.162Z,838.00
2023-04-26T05:42:40.165Z,839.00
2023-04-26T05:43:40.840Z,845.00
2023-04-26T05:44:40.325Z,853.00
2023-04-26T05:45:40.232Z,851.00
2023-04-26T05:46:39.274Z,851.00
2023-04-26T05:47:41.182Z,859.00
2023-04-26T05:48:40.812Z,861.00
2023-04-26T05:49:40.687Z,859.00
2023-04-26T05:50:40.146Z,864.00
2023-04-26T05:51:40.571Z,873.00
2023-04-26T05:52:41.577Z,877.00
2023-04-26T05:53:39.448Z,883.00
2023-04-26T05:54:40.666Z,896.00
2023-04-26T05:55:40.685Z,990.00
2023-04-26T05:56:39.663Z,980.00
2023-04-26T05:57:41.006Z,1047.00
2023-04-26T05:58:39.588Z,1025.00
2023-04-26T05:59:40.653Z,1029.00
2023-04-26T06:00:39.772Z,1039.00
2023-04-26T06:01:39.844Z,1045.00
2023-04-26T06:02:40.720Z,1155.00
2023-04-26T06:03:39.962Z,1129.00
2023-04-26T06:04:40.728Z,1136.00
2023-04-26T06:05:39.764Z,1224.00
2023-04-26T06:06:42.124Z,1310.00
2023-04-26T06:07:41.083Z,1347.00
2023-04-26T06:08:40.843Z,1276.00
2023-04-26T06:09:40.791Z,1376.00
2023-04-26T06:10:39.795Z,1353.00
2023-04-26T06:11:40.852Z,1379.00
2023-04-26T06:12:40.954Z,1401.00
2023-04-26T06:13:40.832Z,1404.00
2023-04-26T06:14:40.818Z,1456.00
2023-04-26T06:15:40.837Z,1577.00
2023-04-26T06:16:42.368Z,1487.00
2023-04-26T06:17:40.819Z,1490.00
2023-04-26T06:18:40.896Z,1532.00
2023-04-26T06:19:40.813Z,1533.00
2023-04-26T06:20:39.786Z,1578.00
2023-04-26T06:21:40.869Z,1756.00
2023-04-26T06:22:40.817Z,1585.00
2023-04-26T06:23:39.782Z,1643.00
2023-04-26T06:24:39.825Z,1701.00
2023-04-26T06:25:40.748Z,1766.00
2023-04-26T06:26:40.752Z,1757.00
2023-04-26T06:27:40.808Z,1775.00
2023-04-26T06:28:42.315Z,1770.00
2023-04-26T06:29:41.060Z,1776.00
2023-04-26T06:30:41.034Z,1789.00
2023-04-26T06:31:41.077Z,1826.00
2023-04-26T06:32:41.152Z,1861.00
2023-04-26T06:33:41.172Z,1906.00
2023-04-26T06:34:41.178Z,1905.00
2023-04-26T06:35:40.236Z,1912.00
2023-04-26T06:36:40.294Z,1933.00
2023-04-26T06:37:41.330Z,1944.00
2023-04-26T06:38:41.364Z,1948.00
2023-04-26T06:39:40.405Z,1958.00
2023-04-26T06:40:40.440Z,2013.00
2023-04-26T06:41:41.499Z,2038.00
2023-04-26T06:42:41.693Z,2031.00
2023-04-26T06:43:41.557Z,2058.00
2023-04-26T06:44:41.847Z,2126.00
2023-04-26T06:45:43.320Z,2106.00
2023-04-26T06:46:41.652Z,2115.00
2023-04-26T06:47:41.665Z,2128.00
2023-04-26T06:48:41.636Z,2181.00
2023-04-26T06:49:41.652Z,2182.00
2023-04-26T06:50:41.718Z,2238.00
2023-04-26T06:51:40.636Z,2257.00
2023-04-26T06:52:41.598Z,2224.00
2023-04-26T06:53:41.832Z,2230.00
2023-04-26T06:54:53.733Z,2189.00
2023-04-26T06:55:41.605Z,2200.00
2023-04-26T06:56:40.575Z,2321.00
2023-04-26T06:57:41.910Z,2339.00
2023-04-26T06:58:41.771Z,2394.00
2023-04-26T06:59:41.540Z,2361.00
2023-04-26T07:00:41.556Z,2013.00
2023-04-26T07:01:41.765Z,2148.00
2023-04-26T07:02:41.676Z,1895.00
2023-04-26T07:03:41.724Z,1837.00
2023-04-26T07:04:40.684Z,1567.00
2023-04-26T07:05:41.703Z,1273.00
2023-04-26T07:06:41.576Z,1311.00
2023-04-26T07:07:42.441Z,1579.00
2023-04-26T07:08:41.501Z,1795.00
2023-04-26T07:09:41.500Z,1937.00
2023-04-26T07:10:41.520Z,1870.00
2023-04-26T07:11:41.467Z,1919.00
2023-04-26T07:12:41.546Z,1922.00
2023-04-26T07:13:41.477Z,1865.00
2023-04-26T07:14:41.452Z,1914.00
2023-04-26T07:15:41.548Z,1933.00
2023-04-26T07:16:41.619Z,1940.00
2023-04-26T07:17:41.593Z,1945.00
2023-04-26T07:18:41.604Z,1986.00
2023-04-26T07:19:41.700Z,2054.00
2023-04-26T07:20:42.145Z,2053.00
2023-04-26T07:21:40.742Z,2057.00
2023-04-26T07:22:41.830Z,2067.00
2023-04-26T07:23:40.793Z,2122.00
2023-04-26T07:24:40.857Z,2149.00
2023-04-26T07:25:40.942Z,2214.00
2023-04-26T07:26:41.953Z,2211.00
2023-04-26T07:27:40.948Z,2255.00
2023-04-26T07:28:42.085Z,2255.00
2023-04-26T07:29:42.006Z,2256.00
2023-04-26T07:30:42.058Z,2266.00
2023-04-26T07:31:41.085Z,2281.00
2023-04-26T07:32:41.252Z,2298.00
2023-04-26T07:33:41.260Z,2313.00
2023-04-26T07:34:42.151Z,2334.00
2023-04-26T07:35:42.164Z,2344.00
2023-04-26T07:36:42.213Z,2354.00
2023-04-26T07:37:42.224Z,2371.00
2023-04-26T07:38:41.228Z,2388.00
2023-04-26T07:39:42.295Z,2407.00
2023-04-26T07:40:42.276Z,2427.00
2023-04-26T07:41:43.877Z,2439.00
2023-04-26T07:42:41.406Z,2536.00
2023-04-26T07:43:42.279Z,2568.00
2023-04-26T07:44:42.268Z,2406.00
2023-04-26T07:45:42.403Z,2402.00
2023-04-26T07:46:42.253Z,2443.00
2023-04-26T07:47:42.251Z,2531.00
2023-04-26T07:48:43.233Z,2527.00
2023-04-26T07:49:41.238Z,2548.00
2023-04-26T07:50:42.222Z,2560.00
2023-04-26T07:51:42.209Z,2560.00
2023-04-26T07:52:42.202Z,2556.00
2023-04-26T07:53:42.258Z,2544.00
2023-04-26T07:54:42.202Z,2540.00
2023-04-26T07:55:42.192Z,2538.00
2023-04-26T07:56:42.169Z,2533.00
2023-04-26T07:57:41.171Z,2528.00
2023-04-26T07:58:41.248Z,2519.00
2023-04-26T07:59:42.162Z,2511.00
2023-04-26T08:00:41.162Z,2500.00
2023-04-26T08:01:41.181Z,2428.00
2023-04-26T08:02:44.458Z,2418.00
2023-04-26T08:03:42.435Z,2433.00
2023-04-26T08:04:41.245Z,2427.00
2023-04-26T08:05:42.289Z,2429.00
2023-04-26T08:06:41.169Z,2428.00
2023-04-26T08:07:42.104Z,2423.00
2023-04-26T08:08:42.083Z,2428.00
2023-04-26T08:09:42.085Z,2431.00
2023-04-26T08:10:42.069Z,2427.00
2023-04-26T08:11:41.092Z,2422.00
2023-04-26T08:12:41.066Z,2424.00
2023-04-26T08:13:42.051Z,2433.00
2023-04-26T08:14:42.398Z,2442.00
2023-04-26T08:15:41.064Z,2444.00
2023-04-26T08:16:42.097Z,2445.00
2023-04-26T08:17:42.123Z,2443.00
2023-04-26T08:18:43.389Z,2440.00
2023-04-26T08:19:42.044Z,2436.00
2023-04-26T08:20:42.020Z,2440.00
2023-04-26T08:21:42.145Z,2440.00
2023-04-26T08:22:42.040Z,2437.00
2023-04-26T08:23:42.014Z,2437.00
2023-04-26T08:24:41.005Z,2433.00
2023-04-26T08:25:41.964Z,2430.00
2023-04-26T08:26:41.961Z,2420.00
2023-04-26T08:27:41.961Z,2414.00
2023-04-26T08:28:41.962Z,2409.00
2023-04-26T08:29:41.973Z,2402.00
2023-04-26T08:30:41.253Z,2397.00
2023-04-26T08:31:41.999Z,2390.00
2023-04-26T08:32:41.970Z,2384.00
2023-04-26T08:33:40.958Z,2376.00
2023-04-26T08:34:40.925Z,2372.00
2023-04-26T08:35:40.950Z,2366.00
2023-04-26T08:36:41.903Z,2364.00
2023-04-26T08:37:41.898Z,2357.00
2023-04-26T08:38:40.888Z,2351.00
2023-04-26T08:39:41.912Z,2345.00
2023-04-26T08:40:41.866Z,2342.00
2023-04-26T08:41:40.866Z,2342.00
2023-04-26T08:42:41.882Z,2343.00
2023-04-26T08:43:42.262Z,2341.00
2023-04-26T08:44:41.898Z,2340.00
2023-04-26T08:45:41.854Z,2335.00
2023-04-26T08:46:42.149Z,2333.00
2023-04-26T08:47:41.955Z,2333.00
2023-04-26T08:48:40.938Z,2330.00
2023-04-26T08:49:41.966Z,2326.00
2023-04-26T08:50:40.971Z,2325.00
2023-04-26T08:51:41.999Z,2321.00
2023-04-26T08:52:42.054Z,2317.00
2023-04-26T08:53:42.132Z,2314.00
2023-04-26T08:54:41.115Z,2309.00
2023-04-26T08:55:41.137Z,2304.00
2023-04-26T08:56:42.272Z,2295.00
2023-04-26T08:57:42.199Z,2293.00
2023-04-26T08:58:41.303Z,2291.00
2023-04-26T08:59:42.259Z,2288.00
2023-04-26T09:00:41.301Z,2282.00
2023-04-26T09:01:42.420Z,2277.00
2023-04-26T09:02:42.643Z,2269.00
2023-04-26T09:03:41.423Z,2266.00
2023-04-26T09:04:42.467Z,2263.00
2023-04-26T09:05:42.394Z,2265.00
2023-04-26T09:06:42.381Z,2263.00
2023-04-26T09:07:42.365Z,2255.00
2023-04-26T09:08:42.756Z,2247.00
2023-04-26T09:09:42.483Z,2246.00
2023-04-26T09:10:41.412Z,2242.00
2023-04-26T09:11:41.454Z,2235.00
2023-04-26T09:12:42.489Z,2227.00
2023-04-26T09:13:42.434Z,2222.00
2023-04-26T09:14:42.462Z,2216.00
2023-04-26T09:15:42.513Z,2209.00
2023-04-26T09:16:41.568Z,2202.00
2023-04-26T09:17:41.796Z,2194.00
2023-04-26T09:18:41.762Z,2192.00
2023-04-26T09:19:42.504Z,2190.00
2023-04-26T09:20:42.553Z,2186.00
2023-04-26T09:21:42.559Z,2182.00
2023-04-26T09:22:42.552Z,2174.00
2023-04-26T09:23:42.747Z,2170.00
2023-04-26T09:24:42.641Z,2163.00
2023-04-26T09:25:41.644Z,2162.00
2023-04-26T09:26:42.608Z,2111.00
2023-04-26T09:27:42.683Z,1403.00
2023-04-26T09:28:42.770Z,1222.00
2023-04-26T09:29:42.747Z,1053.00
2023-04-26T09:30:41.887Z,932.00
2023-04-26T09:31:42.836Z,974.00
2023-04-26T09:32:41.793Z,858.00
2023-04-26T09:33:42.785Z,876.00
2023-04-26T09:34:42.913Z,999.00
2023-04-26T09:35:42.846Z,823.00
2023-04-26T09:36:42.820Z,830.00
2023-04-26T09:37:50.964Z,787.00
2023-04-26T09:38:42.834Z,887.00
2023-04-26T09:39:42.798Z,1008.00
2023-04-26T09:40:42.789Z,927.00
2023-04-26T09:41:42.774Z,1005.00
2023-04-26T09:42:42.804Z,889.00
2023-04-26T09:43:42.817Z,965.00
2023-04-26T09:44:41.735Z,892.00
2023-04-26T09:45:42.781Z,936.00
2023-04-26T09:46:41.836Z,854.00
2023-04-26T09:47:42.911Z,840.00
2023-04-26T09:48:42.832Z,661.00
2023-04-26T09:49:42.736Z,692.00
2023-04-26T09:50:43.130Z,711.00
2023-04-26T09:51:42.836Z,793.00
2023-04-26T09:52:42.908Z,777.00
2023-04-26T09:53:42.971Z,814.00
2023-04-26T09:54:42.016Z,849.00
2023-04-26T09:55:42.097Z,859.00
2023-04-26T09:56:43.204Z,860.00
2023-04-26T09:57:43.170Z,903.00
2023-04-26T09:58:42.401Z,948.00
2023-04-26T09:59:43.210Z,921.00
2023-04-26T10:00:43.245Z,916.00
2023-04-26T10:01:43.277Z,1025.00
2023-04-26T10:02:43.322Z,975.00
2023-04-26T10:03:42.594Z,956.00
2023-04-26T10:04:42.269Z,949.00
2023-04-26T10:05:43.275Z,934.00
2023-04-26T10:06:43.336Z,769.00
2023-04-26T10:07:43.315Z,982.00
2023-04-26T10:08:43.391Z,986.00
2023-04-26T10:09:43.442Z,994.00
2023-04-26T10:10:43.487Z,991.00
2023-04-26T10:11:43.553Z,1004.00
2023-04-26T10:12:43.589Z,1053.00
2023-04-26T10:13:42.683Z,1014.00
2023-04-26T10:14:42.653Z,1033.00
2023-04-26T10:15:43.665Z,1049.00
2023-04-26T10:16:43.728Z,1071.00
2023-04-26T10:17:42.798Z,981.00
2023-04-26T10:18:43.813Z,1027.00
2023-04-26T10:19:42.894Z,1054.00
2023-04-26T10:20:42.845Z,984.00
2023-04-26T10:21:42.872Z,1044.00
2023-04-26T10:22:42.916Z,1055.00
2023-04-26T10:23:43.877Z,953.00
2023-04-26T10:24:43.893Z,953.00
2023-04-26T10:25:42.953Z,1041.00
2023-04-26T10:26:42.954Z,978.00
2023-04-26T10:27:42.977Z,1023.00
2023-04-26T10:28:42.985Z,1052.00
2023-04-26T10:29:43.945Z,1064.00
2023-04-26T10:30:42.969Z,1050.00
2023-04-26T10:31:44.029Z,1031.00
2023-04-26T10:32:44.051Z,1032.00
2023-04-26T10:33:42.987Z,1036.00
2023-04-26T10:34:43.027Z,1024.00
2023-04-26T10:35:43.989Z,1012.00
2023-04-26T10:36:43.990Z,1019.00
2023-04-26T10:37:43.081Z,1022.00
2023-04-26T10:38:44.063Z,1028.00
2023-04-26T10:39:43.036Z,1027.00
2023-04-26T10:40:43.033Z,1023.00
2023-04-26T10:41:44.126Z,933.00
2023-04-26T10:42:43.048Z,926.00
2023-04-26T10:43:43.045Z,956.00
2023-04-26T10:44:43.067Z,956.00
2023-04-26T10:45:43.192Z,927.00
2023-04-26T10:46:44.258Z,918.00
2023-04-26T10:47:43.156Z,935.00
2023-04-26T10:48:44.339Z,803.00
2023-04-26T10:49:44.168Z,836.00
2023-04-26T10:50:44.188Z,877.00
2023-04-26T10:51:43.239Z,911.00
2023-04-26T10:52:44.269Z,881.00
2023-04-26T10:53:43.302Z,818.00
2023-04-26T10:54:43.400Z,872.00
2023-04-26T10:55:44.420Z,812.00
2023-04-26T10:56:44.439Z,795.00
2023-04-26T10:57:44.535Z,894.00
2023-04-26T10:58:43.524Z,757.00
2023-04-26T10:59:54.274Z,759.00
2023-04-26T11:00:44.610Z,828.00
2023-04-26T11:01:43.612Z,815.00
2023-04-26T11:02:43.606Z,790.00
2023-04-26T11:03:44.757Z,761.00
2023-04-26T11:04:44.679Z,869.00
2023-04-26T11:05:44.568Z,732.00
2023-04-26T11:06:44.547Z,840.00
2023-04-26T11:07:44.556Z,689.00
2023-04-26T11:08:44.725Z,836.00
2023-04-26T11:09:44.544Z,826.00
2023-04-26T11:10:44.604Z,738.00
2023-04-26T11:11:43.490Z,790.00
2023-04-26T11:12:44.508Z,789.00
2023-04-26T11:13:43.514Z,751.00
2023-04-26T11:14:44.528Z,831.00
2023-04-26T11:15:43.495Z,815.00
2023-04-26T11:16:43.513Z,802.00
2023-04-26T11:17:44.457Z,742.00
2023-04-26T11:18:43.466Z,758.00
2023-04-26T11:19:43.446Z,756.00
2023-04-26T11:20:44.665Z,734.00
2023-04-26T11:21:43.464Z,780.00
2023-04-26T11:22:44.422Z,782.00
2023-04-26T11:23:44.453Z,787.00
2023-04-26T11:24:44.466Z,765.00
2023-04-26T11:25:44.462Z,759.00
2023-04-26T11:26:43.433Z,747.00
2023-04-26T11:27:43.471Z,752.00
2023-04-26T11:28:43.579Z,752.00
2023-04-26T11:29:44.598Z,763.00
2023-04-26T11:30:44.565Z,796.00
2023-04-26T11:31:44.678Z,808.00
2023-04-26T11:32:43.686Z,812.00
2023-04-26T11:33:44.838Z,892.00
2023-04-26T11:34:44.779Z,867.00
2023-04-26T11:35:44.786Z,905.00
2023-04-26T11:36:44.808Z,909.00
2023-04-26T11:37:43.873Z,898.00
2023-04-26T11:38:44.938Z,892.00
2023-04-26T11:39:43.907Z,883.00
2023-04-26T11:40:44.949Z,881.00
2023-04-26T11:41:44.962Z,881.00
2023-04-26T11:42:43.969Z,883.00
2023-04-26T11:43:45.017Z,884.00
2023-04-26T11:44:45.127Z,887.00
2023-04-26T11:45:45.010Z,891.00
2023-04-26T11:46:44.045Z,897.00
2023-04-26T11:47:45.359Z,898.00
2023-04-26T11:48:44.051Z,901.00
2023-04-26T11:49:45.066Z,902.00
2023-04-26T11:50:44.160Z,906.00
2023-04-26T11:51:44.273Z,914.00
2023-04-26T11:52:44.154Z,921.00
2023-04-26T11:53:44.233Z,925.00
2023-04-26T11:54:45.156Z,929.00
2023-04-26T11:55:44.158Z,933.00
2023-04-26T11:56:45.125Z,934.00
2023-04-26T11:57:44.171Z,937.00
2023-04-26T11:58:45.153Z,943.00
2023-04-26T11:59:45.208Z,946.00
2023-04-26T12:00:45.250Z,954.00
2023-04-26T12:01:44.218Z,960.00
2023-04-26T12:02:44.252Z,964.00
2023-04-26T12:03:44.430Z,964.00
2023-04-26T12:04:44.479Z,965.00
2023-04-26T12:05:45.301Z,966.00
2023-04-26T12:06:45.270Z,970.00
2023-04-26T12:07:45.268Z,974.00
2023-04-26T12:08:45.292Z,975.00
2023-04-26T12:09:45.321Z,977.00
2023-04-26T12:10:44.322Z,981.00
2023-04-26T12:11:44.340Z,983.00
2023-04-26T12:12:45.369Z,988.00
2023-04-26T12:13:45.431Z,990.00
2023-04-26T12:14:44.409Z,989.00
2023-04-26T12:15:45.454Z,986.00
2023-04-26T12:16:45.620Z,984.00
2023-04-26T12:17:44.493Z,985.00
2023-04-26T12:18:44.442Z,987.00
2023-04-26T12:19:44.460Z,986.00
2023-04-26T12:20:44.480Z,986.00
2023-04-26T12:21:45.494Z,985.00
2023-04-26T12:22:44.492Z,986.00
2023-04-26T12:23:44.524Z,986.00